TAF GCLP
GCLP 280800Z 2809/2909 02021KT 9999 SCT025 TX22/2814Z TN16/2906Z PROB40 TEMPO 2809/2824 02020G30KT PROB30 TEMPO 2809/2817 RA=
METAR GCLP
GCLP 280830Z 36014KT 9999 FEW030 SCT040 19/14 Q1024 NOSIG=
GCLP 280800Z 36013KT 9999 FEW030 SCT040 18/13 Q1023 NOSIG=
GCLP 280730Z 35013KT 320V030 9999 FEW030 18/13 Q1023 NOSIG=
GCLP 280700Z 36014KT 9999 FEW030 BKN040 18/13 Q1023 NOSIG=
GCLP 280630Z 35011KT 9999 BKN030 17/13 Q1022 NOSIG=
WC GCLP
WS GCLP
WV GCLP